createdAt,value
2022-10-18T00:00:56.440Z,8.57
2022-10-18T00:03:24.585Z,10.60
2022-10-18T00:05:53.149Z,10.18
2022-10-18T00:08:21.700Z,7.53
2022-10-18T00:10:50.366Z,6.60
2022-10-18T00:13:18.782Z,6.57
2022-10-18T00:15:51.755Z,7.75
2022-10-18T00:18:20.494Z,5.85
2022-10-18T00:20:58.272Z,6.72
2022-10-18T00:23:26.795Z,6.35
2022-10-18T00:26:03.538Z,7.63
2022-10-18T00:28:31.937Z,5.53
2022-10-18T00:31:10.771Z,8.57
2022-10-18T00:33:39.041Z,7.07
2022-10-18T00:36:08.967Z,11.60
2022-10-18T00:38:37.569Z,11.10
2022-10-18T00:41:06.566Z,7.45
2022-10-18T00:43:51.368Z,7.00
2022-10-18T00:46:20.654Z,7.13
2022-10-18T00:48:49.361Z,8.55
2022-10-18T00:51:20.123Z,10.13
2022-10-18T00:53:48.637Z,11.27
2022-10-18T00:56:16.967Z,13.85
2022-10-18T00:58:47.202Z,11.63
2022-10-18T01:01:15.248Z,9.82
2022-10-18T01:03:44.740Z,8.27
2022-10-18T01:06:12.874Z,5.15
2022-10-18T01:08:58.015Z,5.22
2022-10-18T01:11:38.750Z,7.53
2022-10-18T01:14:26.962Z,7.60
2022-10-18T01:16:59.997Z,9.63
2022-10-18T01:19:56.230Z,8.43
2022-10-18T01:22:28.701Z,10.02
2022-10-18T01:25:07.544Z,10.18
2022-10-18T01:27:46.895Z,7.55
2022-10-18T01:30:40.037Z,8.77
2022-10-18T01:33:16.026Z,10.95
2022-10-18T01:35:48.403Z,12.75
2022-10-18T01:38:18.223Z,9.13
2022-10-18T01:40:50.035Z,13.13
2022-10-18T01:43:20.446Z,17.58
2022-10-18T01:45:50.754Z,23.77
2022-10-18T01:48:21.337Z,15.20
2022-10-18T01:50:49.353Z,9.70
2022-10-18T01:53:32.058Z,12.85
2022-10-18T01:56:16.172Z,13.25
2022-10-18T01:58:54.971Z,13.75
2022-10-18T02:01:32.328Z,15.95
2022-10-18T02:04:07.990Z,7.97
2022-10-18T02:06:43.771Z,10.13
2022-10-18T02:09:18.912Z,8.57
2022-10-18T02:11:49.164Z,7.28
2022-10-18T02:14:21.271Z,5.75
2022-10-18T02:16:53.794Z,6.03
2022-10-18T02:19:26.960Z,5.95
2022-10-18T02:21:56.900Z,5.57
2022-10-18T02:24:28.483Z,5.32
2022-10-18T02:26:56.405Z,8.02
2022-10-18T02:29:25.081Z,7.00
2022-10-18T02:32:03.204Z,12.40
2022-10-18T02:34:36.790Z,5.88
2022-10-18T02:37:05.833Z,7.10
2022-10-18T02:39:40.432Z,4.40
2022-10-18T02:42:11.587Z,5.45
2022-10-18T02:44:40.247Z,6.55
2022-10-18T02:47:11.858Z,6.18
2022-10-18T02:49:39.841Z,7.65
2022-10-18T02:52:07.859Z,7.40
2022-10-18T02:54:37.985Z,10.80
2022-10-18T02:57:05.932Z,9.63
2022-10-18T02:59:33.864Z,7.82
2022-10-18T03:02:01.782Z,6.00
2022-10-18T03:04:31.053Z,8.27
2022-10-18T03:07:01.296Z,12.90
2022-10-18T03:09:29.223Z,12.90
2022-10-18T03:11:57.235Z,10.25
2022-10-18T03:14:25.203Z,15.43
2022-10-18T03:16:53.147Z,9.23
2022-10-18T03:19:21.088Z,9.38
2022-10-18T03:21:50.432Z,20.52
2022-10-18T03:24:18.531Z,12.55
2022-10-18T03:26:46.521Z,6.03
2022-10-18T03:29:14.616Z,6.55
2022-10-18T03:31:42.524Z,11.23
2022-10-18T03:34:10.497Z,13.82
2022-10-18T03:36:38.812Z,25.10
2022-10-18T03:39:10.397Z,9.45
2022-10-18T03:41:41.338Z,10.98
2022-10-18T03:44:09.471Z,15.77
2022-10-18T03:46:37.417Z,23.05
2022-10-18T03:49:05.832Z,10.55
2022-10-18T03:51:33.891Z,16.77
2022-10-18T03:54:02.118Z,12.35
2022-10-18T03:56:31.383Z,54.42
2022-10-18T03:58:59.323Z,57.38
2022-10-18T04:01:27.333Z,42.90
2022-10-18T04:03:55.311Z,36.58
2022-10-18T04:06:23.271Z,21.55
2022-10-18T04:08:51.197Z,22.83
2022-10-18T04:11:19.128Z,23.40
2022-10-18T04:13:48.623Z,13.13
2022-10-18T04:16:16.622Z,13.10
2022-10-18T04:18:44.580Z,13.15
2022-10-18T04:21:12.512Z,16.63
2022-10-18T04:23:40.432Z,23.95
2022-10-18T04:26:08.609Z,17.50
2022-10-18T04:28:39.864Z,19.85
2022-10-18T04:31:09.945Z,19.38
2022-10-18T04:33:38.217Z,12.88
2022-10-18T04:36:06.355Z,15.63
2022-10-18T04:38:34.327Z,14.20
2022-10-18T04:41:02.396Z,8.73
2022-10-18T04:43:30.349Z,15.73
2022-10-18T04:46:00.347Z,9.38
2022-10-18T04:48:29.665Z,12.93
2022-10-18T04:50:57.639Z,12.85
2022-10-18T04:53:25.582Z,10.60
2022-10-18T04:55:53.563Z,12.75
2022-10-18T04:58:21.510Z,10.63
2022-10-18T05:00:50.514Z,8.93
2022-10-18T05:03:18.518Z,9.80
2022-10-18T05:06:01.397Z,9.57
2022-10-18T05:08:29.544Z,13.65
2022-10-18T05:10:57.584Z,15.07
2022-10-18T05:13:25.735Z,11.35
2022-10-18T05:15:53.789Z,11.63
2022-10-18T05:18:21.756Z,10.63
2022-10-18T05:20:51.056Z,10.23
2022-10-18T05:23:19.025Z,21.27
2022-10-18T05:25:46.989Z,9.40
2022-10-18T05:28:38.090Z,16.52
2022-10-18T05:31:03.526Z,14.70
2022-10-18T05:33:31.685Z,25.70
2022-10-18T05:36:01.594Z,14.82
2022-10-18T05:38:30.945Z,17.67
2022-10-18T05:41:05.386Z,18.15
2022-10-18T05:43:33.299Z,20.15
2022-10-18T05:46:01.231Z,15.40
2022-10-18T05:48:29.187Z,13.93
2022-10-18T05:50:59.171Z,13.95
2022-10-18T05:53:36.707Z,17.50
2022-10-18T05:56:06.023Z,17.95
2022-10-18T05:58:34.027Z,15.68
2022-10-18T06:01:02.464Z,12.18
2022-10-18T06:03:31.313Z,11.85
2022-10-18T06:06:01.356Z,12.52
2022-10-18T06:08:30.707Z,7.85
2022-10-18T06:10:58.747Z,6.80
2022-10-18T06:13:29.071Z,8.10
2022-10-18T06:15:59.159Z,10.98
2022-10-18T06:18:27.124Z,13.52
2022-10-18T06:20:58.833Z,15.38
2022-10-18T06:23:27.366Z,18.50
2022-10-18T06:25:59.759Z,19.08
2022-10-18T06:28:28.525Z,14.93
2022-10-18T06:30:58.059Z,15.77
2022-10-18T06:33:26.229Z,15.98
2022-10-18T06:35:59.094Z,13.32
2022-10-18T06:38:27.785Z,24.33
2022-10-18T06:40:58.247Z,15.50
2022-10-18T06:43:26.976Z,12.63
2022-10-18T06:45:55.922Z,13.52
2022-10-18T06:48:24.048Z,13.77
2022-10-18T06:50:53.497Z,15.40
2022-10-18T06:53:21.572Z,14.77
2022-10-18T06:55:49.526Z,14.73
2022-10-18T06:58:18.792Z,14.45
2022-10-18T07:00:46.983Z,13.95
2022-10-18T07:03:15.081Z,14.30
2022-10-18T07:05:43.077Z,14.85
2022-10-18T07:08:11.015Z,11.77
2022-10-18T07:10:38.969Z,13.13
2022-10-18T07:13:30.934Z,16.27
2022-10-18T07:16:05.524Z,14.90
2022-10-18T07:18:34.593Z,16.33
2022-10-18T07:21:03.786Z,11.80
2022-10-18T07:23:35.260Z,13.40
2022-10-18T07:26:04.495Z,15.82
2022-10-18T07:28:32.537Z,16.55
2022-10-18T07:31:07.740Z,14.05
2022-10-18T07:33:35.981Z,16.42
2022-10-18T07:36:04.675Z,11.30
2022-10-18T07:38:33.191Z,16.10
2022-10-18T07:41:02.464Z,13.43
2022-10-18T07:43:30.823Z,15.15
2022-10-18T07:46:00.506Z,11.20
2022-10-18T07:48:30.381Z,13.90
2022-10-18T07:51:00.292Z,14.07
2022-10-18T07:53:28.374Z,11.38
2022-10-18T07:56:03.462Z,21.40
2022-10-18T07:58:34.818Z,11.82
2022-10-18T08:01:04.252Z,15.07
2022-10-18T08:03:34.176Z,18.70
2022-10-18T08:06:02.482Z,11.00
2022-10-18T08:08:30.827Z,13.93
2022-10-18T08:11:04.146Z,17.52
2022-10-18T08:13:32.306Z,18.30
2022-10-18T08:16:04.920Z,13.52
2022-10-18T08:18:37.800Z,10.15
2022-10-18T08:21:07.553Z,14.52
2022-10-18T08:23:36.346Z,12.00
2022-10-18T08:26:05.071Z,12.77
2022-10-18T08:28:33.085Z,9.85
2022-10-18T08:31:04.165Z,9.20
2022-10-18T08:33:33.953Z,8.00
2022-10-18T08:36:05.653Z,8.32
2022-10-18T08:38:36.432Z,7.47
2022-10-18T08:41:25.934Z,8.23
2022-10-18T08:44:06.380Z,12.10
2022-10-18T08:46:38.182Z,7.80
2022-10-18T08:49:19.399Z,6.88
2022-10-18T08:51:50.228Z,7.63
2022-10-18T08:54:26.804Z,6.57
2022-10-18T08:57:01.014Z,5.32
2022-10-18T08:59:34.497Z,12.25
2022-10-18T09:02:16.675Z,11.23
2022-10-18T09:04:53.242Z,7.70
2022-10-18T09:07:38.661Z,9.05
2022-10-18T09:10:18.595Z,7.10
2022-10-18T09:13:09.934Z,4.85
2022-10-18T09:15:46.636Z,8.23
2022-10-18T09:18:28.595Z,7.53
2022-10-18T09:20:59.792Z,10.15
2022-10-18T09:23:40.346Z,5.55
2022-10-18T09:26:14.850Z,10.30
2022-10-18T09:28:58.926Z,4.53
2022-10-18T09:31:37.552Z,10.32
2022-10-18T09:34:10.600Z,7.10
2022-10-18T09:36:40.275Z,9.45
2022-10-18T09:39:14.059Z,6.10
2022-10-18T09:41:48.380Z,5.15
2022-10-18T09:44:22.010Z,10.55
2022-10-18T09:46:54.337Z,5.40
2022-10-18T09:49:27.940Z,7.55
2022-10-18T09:51:59.729Z,6.38
2022-10-18T09:54:32.823Z,4.53
2022-10-18T09:57:05.694Z,5.75
2022-10-18T09:59:42.394Z,7.93
2022-10-18T10:02:14.873Z,6.22
2022-10-18T10:04:42.839Z,7.63
2022-10-18T10:07:15.493Z,7.32
2022-10-18T10:09:47.083Z,8.07
2022-10-18T10:12:30.200Z,6.60
2022-10-18T10:15:10.470Z,5.75
2022-10-18T10:17:38.827Z,10.85
2022-10-18T10:20:19.296Z,5.43
2022-10-18T10:22:50.346Z,5.43
2022-10-18T10:25:26.931Z,6.50
2022-10-18T10:27:55.171Z,8.38
2022-10-18T10:30:26.734Z,7.40
2022-10-18T10:32:58.472Z,5.60
2022-10-18T10:38:25.965Z,8.63
2022-10-18T10:40:54.851Z,6.40
2022-10-18T10:43:37.224Z,7.55
2022-10-18T10:46:10.184Z,8.25
2022-10-18T10:48:47.934Z,9.63
2022-10-18T10:51:19.175Z,5.47
2022-10-18T10:53:58.533Z,12.27
2022-10-18T10:56:28.922Z,7.93
2022-10-18T10:58:59.136Z,5.65
2022-10-18T11:01:30.555Z,9.32
2022-10-18T11:04:00.680Z,8.13
2022-10-18T11:06:40.328Z,9.23
2022-10-18T11:09:32.834Z,6.82
2022-10-18T11:12:13.027Z,9.63
2022-10-18T11:14:45.693Z,6.15
2022-10-18T11:17:22.891Z,9.57
2022-10-18T11:20:16.804Z,7.63
2022-10-18T11:22:51.234Z,4.38
2022-10-18T11:25:24.579Z,8.05
2022-10-18T11:27:58.893Z,4.22
2022-10-18T11:30:47.034Z,5.65
2022-10-18T11:33:33.592Z,8.27
2022-10-18T11:36:11.837Z,6.95
2022-10-18T11:38:50.724Z,7.07
2022-10-18T11:41:31.546Z,4.90
2022-10-18T11:44:03.520Z,9.60
2022-10-18T11:46:48.615Z,8.27
2022-10-18T11:49:39.953Z,5.47
2022-10-18T11:52:14.264Z,11.98
2022-10-18T11:54:56.815Z,5.65
2022-10-18T11:57:49.915Z,4.43
2022-10-18T12:00:30.233Z,8.43
2022-10-18T12:03:18.868Z,6.00
2022-10-18T12:05:49.325Z,9.60
2022-10-18T12:08:22.352Z,4.60
2022-10-18T12:11:09.469Z,9.38
2022-10-18T12:13:47.319Z,6.28
2022-10-18T12:16:16.346Z,4.78
2022-10-18T12:18:54.021Z,7.13
2022-10-18T12:21:25.899Z,5.28
2022-10-18T12:23:57.496Z,4.97
2022-10-18T12:26:26.942Z,7.20
2022-10-18T12:29:04.203Z,6.25
2022-10-18T12:31:37.846Z,5.15
2022-10-18T12:34:24.486Z,6.05
2022-10-18T12:37:09.483Z,6.25
2022-10-18T12:39:44.130Z,5.32
2022-10-18T12:42:29.106Z,15.02
2022-10-18T12:45:17.394Z,10.02
2022-10-18T12:47:45.480Z,9.55
2022-10-18T12:50:32.243Z,6.68
2022-10-18T12:53:06.904Z,7.13
2022-10-18T12:55:37.828Z,4.53
2022-10-18T12:58:24.497Z,6.78
2022-10-18T13:00:55.936Z,6.30
2022-10-18T13:03:58.567Z,9.30
2022-10-18T13:06:26.902Z,5.07
2022-10-18T13:09:19.788Z,15.10
2022-10-18T13:11:47.812Z,9.80
2022-10-18T13:14:54.477Z,7.40
2022-10-18T13:17:40.853Z,5.28
2022-10-18T13:20:26.198Z,4.70
2022-10-18T13:23:05.051Z,3.97
2022-10-18T13:25:46.608Z,8.23
2022-10-18T13:28:27.388Z,7.75
2022-10-18T13:30:58.743Z,6.93
2022-10-18T13:33:33.152Z,9.52
2022-10-18T13:36:03.936Z,5.60
2022-10-18T13:38:42.159Z,7.50
2022-10-18T13:41:12.822Z,5.68
2022-10-18T13:44:13.077Z,9.95
2022-10-18T13:47:10.011Z,9.27
2022-10-18T13:49:50.370Z,6.20
2022-10-18T13:52:27.415Z,8.30
2022-10-18T13:55:07.073Z,6.88
2022-10-18T13:57:47.867Z,5.35
2022-10-18T14:00:48.157Z,8.15
2022-10-18T14:03:57.391Z,5.40
2022-10-18T14:06:29.659Z,4.90
2022-10-18T14:09:09.527Z,7.45
2022-10-18T14:11:50.631Z,7.07
2022-10-18T14:14:26.303Z,5.43
2022-10-18T14:17:02.792Z,8.63
2022-10-18T14:19:37.117Z,15.88
2022-10-18T14:22:14.094Z,7.00
2022-10-18T14:24:46.023Z,5.80
2022-10-18T14:27:17.779Z,7.60
2022-10-18T14:29:45.815Z,11.07
2022-10-18T14:32:24.922Z,8.50
2022-10-18T14:34:55.790Z,6.93
2022-10-18T14:37:35.806Z,7.57
2022-10-18T14:40:04.461Z,9.35
2022-10-18T14:42:32.449Z,6.32
2022-10-18T14:45:00.438Z,7.40
2022-10-18T14:47:30.084Z,9.18
2022-10-18T14:49:58.581Z,6.88
2022-10-18T14:52:32.900Z,6.05
2022-10-18T14:55:05.141Z,8.13
2022-10-18T14:57:36.674Z,6.88
2022-10-18T15:00:08.770Z,6.10
2022-10-18T15:02:39.395Z,7.95
2022-10-18T15:05:10.332Z,8.32
2022-10-18T15:07:38.585Z,6.53
2022-10-18T15:10:15.519Z,14.35
2022-10-18T15:13:08.319Z,10.57
2022-10-18T15:15:34.579Z,9.00
2022-10-18T15:18:05.110Z,14.20
2022-10-18T15:20:35.236Z,13.30
2022-10-18T15:23:23.076Z,16.75
2022-10-18T15:25:53.922Z,12.32
2022-10-18T15:28:30.372Z,17.40
2022-10-18T15:30:59.066Z,15.38
2022-10-18T15:33:27.909Z,11.60
2022-10-18T15:35:56.161Z,21.30
2022-10-18T15:38:28.324Z,10.70
2022-10-18T15:40:57.935Z,17.02
2022-10-18T15:43:37.650Z,12.23
2022-10-18T15:46:07.281Z,9.75
2022-10-18T15:48:38.004Z,16.70
2022-10-18T15:51:07.687Z,16.10
2022-10-18T15:53:51.662Z,25.65
2022-10-18T15:56:32.825Z,16.40
2022-10-18T15:59:03.934Z,16.05
2022-10-18T16:01:42.886Z,30.38
2022-10-18T16:04:19.113Z,15.65
2022-10-18T16:06:47.143Z,20.40
2022-10-18T16:09:17.911Z,14.65
2022-10-18T16:11:52.908Z,9.88
2022-10-18T16:14:25.231Z,17.70
2022-10-18T16:16:55.799Z,20.75
2022-10-18T16:19:24.288Z,13.55
2022-10-18T16:21:53.537Z,17.10
2022-10-18T16:24:22.499Z,15.18
2022-10-18T16:26:53.094Z,17.20
2022-10-18T16:29:25.471Z,23.48
2022-10-18T16:31:58.433Z,40.28
2022-10-18T16:34:27.450Z,14.30
2022-10-18T16:36:55.786Z,23.50
2022-10-18T16:39:23.948Z,28.55
2022-10-18T16:41:53.446Z,23.98
2022-10-18T16:44:21.481Z,21.30
2022-10-18T16:46:52.419Z,17.33
2022-10-18T16:49:24.810Z,17.23
2022-10-18T16:51:53.124Z,11.93
2022-10-18T16:54:21.199Z,13.75
2022-10-18T16:56:50.145Z,15.65
2022-10-18T16:59:29.585Z,14.05
2022-10-18T17:01:57.869Z,12.80
2022-10-18T17:04:25.969Z,12.95
2022-10-18T17:06:58.215Z,11.05
2022-10-18T17:09:26.192Z,8.25
2022-10-18T17:11:54.162Z,12.27
2022-10-18T17:14:23.430Z,13.93
2022-10-18T17:16:54.859Z,8.27
2022-10-18T17:19:25.242Z,12.32
2022-10-18T17:21:53.183Z,9.43
2022-10-18T17:24:21.142Z,15.13
2022-10-18T17:26:49.066Z,12.20
2022-10-18T17:29:17.141Z,10.20
2022-10-18T17:31:46.486Z,7.35
2022-10-18T17:34:21.197Z,14.40
2022-10-18T17:36:49.575Z,11.85
2022-10-18T17:39:17.532Z,11.35
2022-10-18T17:41:45.560Z,13.75
2022-10-18T17:44:13.948Z,17.77
2022-10-18T17:46:42.099Z,11.20
2022-10-18T17:49:11.441Z,11.88
2022-10-18T17:51:42.783Z,11.32
2022-10-18T17:54:10.956Z,11.95
2022-10-18T17:56:40.511Z,11.60
2022-10-18T17:59:10.061Z,12.20
2022-10-18T18:01:38.122Z,14.65
2022-10-18T18:04:09.046Z,15.57
2022-10-18T18:06:42.001Z,15.30
2022-10-18T18:09:14.129Z,10.52
2022-10-18T18:11:44.254Z,13.25
2022-10-18T18:14:14.187Z,14.05
2022-10-18T18:16:45.886Z,15.60
2022-10-18T18:19:15.140Z,10.45
2022-10-18T18:21:47.162Z,10.57
2022-10-18T18:24:15.664Z,13.05
2022-10-18T18:26:44.259Z,13.38
2022-10-18T18:29:13.976Z,15.02
2022-10-18T18:31:43.697Z,12.50
2022-10-18T18:34:12.167Z,13.43
2022-10-18T18:36:40.210Z,8.32
2022-10-18T18:39:09.900Z,12.10
2022-10-18T18:41:38.765Z,10.57
2022-10-18T18:44:07.274Z,14.70
2022-10-18T18:46:38.607Z,11.95
2022-10-18T18:49:07.413Z,11.32
2022-10-18T18:51:37.402Z,11.45
2022-10-18T18:54:05.591Z,12.02
2022-10-18T18:56:34.921Z,12.30
2022-10-18T18:59:02.878Z,10.32
2022-10-18T19:01:32.573Z,10.38
2022-10-18T19:04:01.044Z,8.95
2022-10-18T19:06:31.342Z,11.55
2022-10-18T19:09:02.823Z,10.27
2022-10-18T19:11:33.465Z,11.10
2022-10-18T19:14:03.399Z,17.17
2022-10-18T19:16:32.961Z,9.73
2022-10-18T19:19:02.520Z,12.75
2022-10-18T19:21:33.656Z,12.55
2022-10-18T19:24:04.556Z,11.63
2022-10-18T19:26:35.473Z,12.93
2022-10-18T19:29:07.961Z,10.18
2022-10-18T19:31:38.490Z,9.77
2022-10-18T19:34:08.878Z,14.82
2022-10-18T19:36:39.772Z,15.70
2022-10-18T19:39:09.020Z,11.10
2022-10-18T19:41:37.000Z,10.45
2022-10-18T19:44:06.914Z,11.68
2022-10-18T19:46:35.137Z,16.05
2022-10-18T19:49:03.156Z,14.80
2022-10-18T19:51:31.782Z,12.38
2022-10-18T19:54:00.088Z,13.43
2022-10-18T19:56:30.299Z,12.13
2022-10-18T19:58:59.083Z,10.70
2022-10-18T20:01:29.601Z,15.43
2022-10-18T20:04:00.568Z,14.82
2022-10-18T20:06:28.574Z,14.15
2022-10-18T20:08:56.583Z,19.70
2022-10-18T20:11:29.614Z,17.13
2022-10-18T20:14:03.946Z,17.70
2022-10-18T20:16:34.965Z,15.27
2022-10-18T20:19:08.011Z,9.98
2022-10-18T20:21:36.471Z,13.55
2022-10-18T20:24:04.876Z,14.15
2022-10-18T20:26:33.137Z,18.52
2022-10-18T20:29:01.166Z,14.63
2022-10-18T20:31:30.610Z,14.35
2022-10-18T20:34:01.834Z,7.97
2022-10-18T20:36:31.739Z,6.15
2022-10-18T20:39:00.048Z,3.72
2022-10-18T20:41:30.133Z,2.17
2022-10-18T20:43:59.684Z,2.85
2022-10-18T20:46:30.203Z,4.78
2022-10-18T20:48:59.460Z,2.42
2022-10-18T20:51:27.619Z,2.17
2022-10-18T20:53:55.618Z,1.73
2022-10-18T20:56:26.599Z,1.60
2022-10-18T20:58:57.184Z,1.33
2022-10-18T21:01:26.990Z,2.67
2022-10-18T21:03:56.571Z,2.50
2022-10-18T21:06:28.167Z,0.57
2022-10-18T21:08:57.195Z,2.63
2022-10-18T21:11:26.021Z,2.22
2022-10-18T21:13:54.784Z,1.00
2022-10-18T21:16:25.378Z,2.15
2022-10-18T21:18:53.623Z,1.55
2022-10-18T21:21:23.132Z,0.57
2022-10-18T21:23:53.343Z,1.33
2022-10-18T21:26:23.286Z,1.45
2022-10-18T21:28:52.147Z,0.88
2022-10-18T21:31:22.075Z,2.55
2022-10-18T21:33:53.883Z,3.03
2022-10-18T21:36:21.806Z,2.13
2022-10-18T21:38:50.384Z,2.45
2022-10-18T21:41:21.264Z,2.92
2022-10-18T21:43:52.610Z,1.23
2022-10-18T21:46:22.529Z,3.05
2022-10-18T21:48:52.544Z,2.03
2022-10-18T21:51:22.668Z,0.82
2022-10-18T21:53:52.713Z,0.40
2022-10-18T21:56:24.435Z,1.63
2022-10-18T21:58:52.453Z,1.75
2022-10-18T22:01:22.859Z,0.65
2022-10-18T22:03:53.134Z,1.35
2022-10-18T22:06:22.061Z,0.43
2022-10-18T22:08:51.802Z,0.22
2022-10-18T22:11:23.826Z,1.10
2022-10-18T22:13:52.702Z,0.80
2022-10-18T22:16:23.814Z,0.60
2022-10-18T22:18:52.959Z,0.57
2022-10-18T22:21:22.113Z,3.17
2022-10-18T22:23:51.897Z,0.40
2022-10-18T22:26:25.578Z,0.60
2022-10-18T22:28:57.777Z,0.70
2022-10-18T22:31:28.055Z,0.50
2022-10-18T22:33:58.314Z,0.77
2022-10-18T22:36:27.205Z,0.60
2022-10-18T22:38:55.171Z,0.98
2022-10-18T22:41:24.804Z,3.60
2022-10-18T22:43:53.659Z,0.80
2022-10-18T22:46:21.981Z,0.75
2022-10-18T22:48:50.282Z,1.33
2022-10-18T22:51:18.773Z,0.80
2022-10-18T22:53:47.068Z,0.63
2022-10-18T22:56:17.724Z,1.55
2022-10-18T22:58:47.964Z,0.90
2022-10-18T23:01:18.280Z,1.73
2022-10-18T23:03:46.548Z,0.68
2022-10-18T23:06:23.260Z,0.60
2022-10-18T23:08:52.075Z,3.65
2022-10-18T23:11:20.581Z,1.05
2022-10-18T23:13:50.094Z,2.25
2022-10-18T23:16:18.906Z,1.55
2022-10-18T23:18:50.438Z,3.53
2022-10-18T23:21:18.882Z,2.90
2022-10-18T23:23:46.999Z,1.88
2022-10-18T23:26:20.016Z,1.95
2022-10-18T23:28:53.035Z,1.73
2022-10-18T23:31:22.522Z,2.97
2022-10-18T23:33:53.585Z,3.67
2022-10-18T23:36:22.055Z,2.47
2022-10-18T23:38:50.303Z,3.15
2022-10-18T23:41:18.902Z,1.40
2022-10-18T23:43:48.720Z,3.08
2022-10-18T23:46:18.141Z,4.28
2022-10-18T23:48:46.498Z,2.88
2022-10-18T23:51:14.707Z,2.08
2022-10-18T23:53:45.160Z,2.53
2022-10-18T23:56:15.788Z,3.75
2022-10-18T23:58:45.214Z,1.67
